sensor_id;sensor_type;location;lat;lon;timestamp;P1;durP1;ratioP1;P2;durP2;ratioP2
12437;SDS011;6283;51.330;12.374;2024-03-02T00:00:36;35.87;;;20.80;;
12437;SDS011;6283;51.330;12.374;2024-03-02T00:03:01;38.40;;;19.80;;
12437;SDS011;6283;51.330;12.374;2024-03-02T00:05:27;38.47;;;20.27;;
12437;SDS011;6283;51.330;12.374;2024-03-02T00:10:24;38.33;;;20.23;;
12437;SDS011;6283;51.330;12.374;2024-03-02T00:12:54;34.43;;;18.20;;
12437;SDS011;6283;51.330;12.374;2024-03-02T00:17:56;34.47;;;18.37;;
12437;SDS011;6283;51.330;12.374;2024-03-02T00:20:24;36.70;;;18.90;;
12437;SDS011;6283;51.330;12.374;2024-03-02T00:22:52;34.43;;;19.00;;
12437;SDS011;6283;51.330;12.374;2024-03-02T00:25:27;35.90;;;19.03;;
12437;SDS011;6283;51.330;12.374;2024-03-02T00:33:23;32.93;;;18.17;;
12437;SDS011;6283;51.330;12.374;2024-03-02T00:35:50;31.67;;;17.80;;
12437;SDS011;6283;51.330;12.374;2024-03-02T00:38:16;33.03;;;18.17;;
12437;SDS011;6283;51.330;12.374;2024-03-02T00:40:42;32.10;;;18.27;;
12437;SDS011;6283;51.330;12.374;2024-03-02T00:43:18;31.63;;;17.80;;
12437;SDS011;6283;51.330;12.374;2024-03-02T00:45:49;33.43;;;18.73;;
12437;SDS011;6283;51.330;12.374;2024-03-02T00:48:15;35.50;;;19.37;;
12437;SDS011;6283;51.330;12.374;2024-03-02T00:50:41;37.57;;;19.07;;
12437;SDS011;6283;51.330;12.374;2024-03-02T00:53:09;31.67;;;18.17;;
12437;SDS011;6283;51.330;12.374;2024-03-02T00:55:37;31.63;;;17.40;;
12437;SDS011;6283;51.330;12.374;2024-03-02T00:58:03;31.07;;;18.67;;
12437;SDS011;6283;51.330;12.374;2024-03-02T01:00:28;30.80;;;17.70;;
12437;SDS011;6283;51.330;12.374;2024-03-02T01:02:54;32.73;;;18.70;;
12437;SDS011;6283;51.330;12.374;2024-03-02T01:05:20;36.37;;;18.87;;
12437;SDS011;6283;51.330;12.374;2024-03-02T01:07:45;32.77;;;17.70;;
12437;SDS011;6283;51.330;12.374;2024-03-02T01:10:11;31.60;;;17.67;;
12437;SDS011;6283;51.330;12.374;2024-03-02T01:12:37;32.30;;;17.53;;
12437;SDS011;6283;51.330;12.374;2024-03-02T01:15:03;29.10;;;17.73;;
12437;SDS011;6283;51.330;12.374;2024-03-02T01:17:31;32.60;;;17.83;;
12437;SDS011;6283;51.330;12.374;2024-03-02T01:19:56;27.97;;;16.70;;
12437;SDS011;6283;51.330;12.374;2024-03-02T01:22:22;33.30;;;18.50;;
12437;SDS011;6283;51.330;12.374;2024-03-02T01:24:50;27.97;;;15.73;;
12437;SDS011;6283;51.330;12.374;2024-03-02T01:27:16;28.90;;;16.40;;
12437;SDS011;6283;51.330;12.374;2024-03-02T01:29:42;32.17;;;17.80;;
12437;SDS011;6283;51.330;12.374;2024-03-02T01:32:07;32.87;;;17.70;;
12437;SDS011;6283;51.330;12.374;2024-03-02T01:34:33;34.60;;;17.80;;
12437;SDS011;6283;51.330;12.374;2024-03-02T01:36:58;31.10;;;17.33;;
12437;SDS011;6283;51.330;12.374;2024-03-02T01:39:24;25.17;;;15.37;;
12437;SDS011;6283;51.330;12.374;2024-03-02T01:41:49;28.53;;;15.53;;
12437;SDS011;6283;51.330;12.374;2024-03-02T01:44:15;29.03;;;16.33;;
12437;SDS011;6283;51.330;12.374;2024-03-02T01:46:41;26.20;;;14.87;;
12437;SDS011;6283;51.330;12.374;2024-03-02T01:49:06;28.80;;;16.27;;
12437;SDS011;6283;51.330;12.374;2024-03-02T01:51:32;26.13;;;15.83;;
12437;SDS011;6283;51.330;12.374;2024-03-02T01:53:58;33.80;;;16.13;;
12437;SDS011;6283;51.330;12.374;2024-03-02T01:56:23;29.40;;;16.10;;
12437;SDS011;6283;51.330;12.374;2024-03-02T01:58:49;26.93;;;14.43;;
12437;SDS011;6283;51.330;12.374;2024-03-02T02:01:15;25.50;;;14.83;;
12437;SDS011;6283;51.330;12.374;2024-03-02T02:03:41;28.60;;;16.63;;
12437;SDS011;6283;51.330;12.374;2024-03-02T02:06:09;22.07;;;14.17;;
12437;SDS011;6283;51.330;12.374;2024-03-02T02:08:36;29.73;;;15.60;;
12437;SDS011;6283;51.330;12.374;2024-03-02T02:11:02;30.70;;;15.13;;
12437;SDS011;6283;51.330;12.374;2024-03-02T02:13:28;28.23;;;13.93;;
12437;SDS011;6283;51.330;12.374;2024-03-02T02:15:53;23.37;;;13.93;;
12437;SDS011;6283;51.330;12.374;2024-03-02T02:18:19;24.80;;;14.27;;
12437;SDS011;6283;51.330;12.374;2024-03-02T02:20:45;26.27;;;14.47;;
12437;SDS011;6283;51.330;12.374;2024-03-02T02:23:10;22.80;;;13.70;;
12437;SDS011;6283;51.330;12.374;2024-03-02T02:25:38;24.07;;;12.97;;
12437;SDS011;6283;51.330;12.374;2024-03-02T02:28:04;26.07;;;13.93;;
12437;SDS011;6283;51.330;12.374;2024-03-02T02:30:30;25.30;;;13.10;;
12437;SDS011;6283;51.330;12.374;2024-03-02T02:32:57;21.77;;;12.63;;
12437;SDS011;6283;51.330;12.374;2024-03-02T02:35:23;22.93;;;13.40;;
12437;SDS011;6283;51.330;12.374;2024-03-02T02:37:52;22.57;;;13.33;;
12437;SDS011;6283;51.330;12.374;2024-03-02T02:40:18;21.17;;;13.30;;
12437;SDS011;6283;51.330;12.374;2024-03-02T02:42:44;25.70;;;14.00;;
12437;SDS011;6283;51.330;12.374;2024-03-02T02:45:10;25.40;;;12.90;;
12437;SDS011;6283;51.330;12.374;2024-03-02T02:47:38;24.17;;;13.80;;
12437;SDS011;6283;51.330;12.374;2024-03-02T02:50:04;21.80;;;12.87;;
12437;SDS011;6283;51.330;12.374;2024-03-02T02:52:32;21.17;;;12.70;;
12437;SDS011;6283;51.330;12.374;2024-03-02T02:54:58;25.00;;;14.43;;
12437;SDS011;6283;51.330;12.374;2024-03-02T02:57:24;25.10;;;13.00;;
12437;SDS011;6283;51.330;12.374;2024-03-02T02:59:50;21.90;;;12.83;;
12437;SDS011;6283;51.330;12.374;2024-03-02T03:02:15;20.90;;;12.23;;
12437;SDS011;6283;51.330;12.374;2024-03-02T03:04:41;23.17;;;12.83;;
12437;SDS011;6283;51.330;12.374;2024-03-02T03:07:07;21.97;;;12.80;;
12437;SDS011;6283;51.330;12.374;2024-03-02T03:09:32;23.80;;;13.13;;
12437;SDS011;6283;51.330;12.374;2024-03-02T03:11:58;21.60;;;12.83;;
12437;SDS011;6283;51.330;12.374;2024-03-02T03:14:24;18.53;;;11.17;;
12437;SDS011;6283;51.330;12.374;2024-03-02T03:16:50;20.17;;;12.00;;
12437;SDS011;6283;51.330;12.374;2024-03-02T03:19:16;20.83;;;13.03;;
12437;SDS011;6283;51.330;12.374;2024-03-02T03:21:43;19.97;;;12.20;;
12437;SDS011;6283;51.330;12.374;2024-03-02T03:24:08;23.93;;;11.43;;
12437;SDS011;6283;51.330;12.374;2024-03-02T03:26:35;26.57;;;12.00;;
12437;SDS011;6283;51.330;12.374;2024-03-02T03:29:02;21.40;;;11.30;;
12437;SDS011;6283;51.330;12.374;2024-03-02T03:31:27;18.73;;;11.87;;
12437;SDS011;6283;51.330;12.374;2024-03-02T03:33:54;20.80;;;11.63;;
12437;SDS011;6283;51.330;12.374;2024-03-02T03:36:20;21.93;;;12.40;;
12437;SDS011;6283;51.330;12.374;2024-03-02T03:38:45;19.27;;;11.80;;
12437;SDS011;6283;51.330;12.374;2024-03-02T03:41:11;22.87;;;11.77;;
12437;SDS011;6283;51.330;12.374;2024-03-02T03:43:36;17.77;;;11.20;;
12437;SDS011;6283;51.330;12.374;2024-03-02T03:46:02;19.40;;;11.17;;
12437;SDS011;6283;51.330;12.374;2024-03-02T03:48:28;20.23;;;12.17;;
12437;SDS011;6283;51.330;12.374;2024-03-02T03:50:55;19.13;;;11.10;;
12437;SDS011;6283;51.330;12.374;2024-03-02T03:53:21;21.93;;;11.77;;
12437;SDS011;6283;51.330;12.374;2024-03-02T03:55:47;19.30;;;11.90;;
12437;SDS011;6283;51.330;12.374;2024-03-02T03:58:14;21.00;;;12.00;;
12437;SDS011;6283;51.330;12.374;2024-03-02T04:00:42;20.83;;;12.00;;
12437;SDS011;6283;51.330;12.374;2024-03-02T04:03:07;19.17;;;11.53;;
12437;SDS011;6283;51.330;12.374;2024-03-02T04:05:33;22.93;;;11.97;;
12437;SDS011;6283;51.330;12.374;2024-03-02T04:07:58;19.83;;;11.37;;
12437;SDS011;6283;51.330;12.374;2024-03-02T04:10:25;22.23;;;12.67;;
12437;SDS011;6283;51.330;12.374;2024-03-02T04:12:50;21.73;;;11.57;;
12437;SDS011;6283;51.330;12.374;2024-03-02T04:15:16;18.90;;;12.07;;
12437;SDS011;6283;51.330;12.374;2024-03-02T04:17:43;18.97;;;11.17;;
12437;SDS011;6283;51.330;12.374;2024-03-02T04:20:09;19.30;;;10.67;;
12437;SDS011;6283;51.330;12.374;2024-03-02T04:22:37;23.23;;;12.23;;
12437;SDS011;6283;51.330;12.374;2024-03-02T04:25:03;21.57;;;12.00;;
12437;SDS011;6283;51.330;12.374;2024-03-02T04:27:29;20.23;;;11.97;;
12437;SDS011;6283;51.330;12.374;2024-03-02T04:29:56;21.83;;;12.27;;
12437;SDS011;6283;51.330;12.374;2024-03-02T04:32:22;21.60;;;11.97;;
12437;SDS011;6283;51.330;12.374;2024-03-02T04:34:47;19.63;;;11.23;;
12437;SDS011;6283;51.330;12.374;2024-03-02T04:37:13;19.63;;;11.63;;
12437;SDS011;6283;51.330;12.374;2024-03-02T04:39:39;20.53;;;11.67;;
12437;SDS011;6283;51.330;12.374;2024-03-02T04:42:05;21.20;;;11.77;;
12437;SDS011;6283;51.330;12.374;2024-03-02T04:44:30;18.83;;;11.03;;
12437;SDS011;6283;51.330;12.374;2024-03-02T04:46:56;19.20;;;11.80;;
12437;SDS011;6283;51.330;12.374;2024-03-02T04:49:22;19.10;;;11.23;;
12437;SDS011;6283;51.330;12.374;2024-03-02T04:51:48;18.97;;;11.23;;
12437;SDS011;6283;51.330;12.374;2024-03-02T04:54:13;19.57;;;10.90;;
12437;SDS011;6283;51.330;12.374;2024-03-02T04:56:39;17.73;;;11.20;;
12437;SDS011;6283;51.330;12.374;2024-03-02T04:59:09;19.73;;;11.73;;
12437;SDS011;6283;51.330;12.374;2024-03-02T05:01:35;19.83;;;11.27;;
12437;SDS011;6283;51.330;12.374;2024-03-02T05:04:01;22.10;;;10.93;;
12437;SDS011;6283;51.330;12.374;2024-03-02T05:06:26;22.70;;;11.43;;
12437;SDS011;6283;51.330;12.374;2024-03-02T05:08:52;20.37;;;11.80;;
12437;SDS011;6283;51.330;12.374;2024-03-02T05:11:17;22.37;;;12.10;;
12437;SDS011;6283;51.330;12.374;2024-03-02T05:14:02;19.90;;;11.57;;
12437;SDS011;6283;51.330;12.374;2024-03-02T05:16:27;19.27;;;10.97;;
12437;SDS011;6283;51.330;12.374;2024-03-02T05:18:53;21.70;;;12.60;;
12437;SDS011;6283;51.330;12.374;2024-03-02T05:21:19;19.03;;;11.57;;
12437;SDS011;6283;51.330;12.374;2024-03-02T05:23:45;22.07;;;11.63;;
12437;SDS011;6283;51.330;12.374;2024-03-02T05:26:10;20.43;;;10.97;;
12437;SDS011;6283;51.330;12.374;2024-03-02T05:28:39;22.17;;;12.37;;
12437;SDS011;6283;51.330;12.374;2024-03-02T05:31:04;21.90;;;12.00;;
12437;SDS011;6283;51.330;12.374;2024-03-02T05:33:30;20.70;;;12.10;;
12437;SDS011;6283;51.330;12.374;2024-03-02T05:35:58;22.63;;;12.07;;
12437;SDS011;6283;51.330;12.374;2024-03-02T05:38:23;24.80;;;12.57;;
12437;SDS011;6283;51.330;12.374;2024-03-02T05:40:49;20.60;;;12.10;;
12437;SDS011;6283;51.330;12.374;2024-03-02T05:43:15;22.07;;;12.10;;
12437;SDS011;6283;51.330;12.374;2024-03-02T05:45:41;18.77;;;11.27;;
12437;SDS011;6283;51.330;12.374;2024-03-02T05:48:09;19.13;;;11.10;;
12437;SDS011;6283;51.330;12.374;2024-03-02T05:50:35;21.03;;;12.20;;
12437;SDS011;6283;51.330;12.374;2024-03-02T05:53:00;19.83;;;10.83;;
12437;SDS011;6283;51.330;12.374;2024-03-02T05:55:26;24.13;;;12.23;;
12437;SDS011;6283;51.330;12.374;2024-03-02T05:57:51;22.53;;;11.83;;
12437;SDS011;6283;51.330;12.374;2024-03-02T06:00:23;19.93;;;11.50;;
12437;SDS011;6283;51.330;12.374;2024-03-02T06:02:49;24.73;;;12.37;;
12437;SDS011;6283;51.330;12.374;2024-03-02T06:05:14;22.93;;;12.97;;
12437;SDS011;6283;51.330;12.374;2024-03-02T06:07:41;19.27;;;11.77;;
12437;SDS011;6283;51.330;12.374;2024-03-02T06:10:08;22.20;;;13.00;;
12437;SDS011;6283;51.330;12.374;2024-03-02T06:12:34;22.70;;;12.87;;
12437;SDS011;6283;51.330;12.374;2024-03-02T06:14:59;22.17;;;12.97;;
12437;SDS011;6283;51.330;12.374;2024-03-02T06:17:25;24.10;;;12.37;;
12437;SDS011;6283;51.330;12.374;2024-03-02T06:19:51;21.47;;;12.80;;
12437;SDS011;6283;51.330;12.374;2024-03-02T06:22:16;21.93;;;12.03;;
12437;SDS011;6283;51.330;12.374;2024-03-02T06:24:42;22.50;;;12.67;;
12437;SDS011;6283;51.330;12.374;2024-03-02T06:27:07;22.53;;;13.60;;
12437;SDS011;6283;51.330;12.374;2024-03-02T06:29:33;23.27;;;13.13;;
12437;SDS011;6283;51.330;12.374;2024-03-02T06:31:59;24.33;;;13.60;;
12437;SDS011;6283;51.330;12.374;2024-03-02T06:34:25;23.37;;;13.10;;
12437;SDS011;6283;51.330;12.374;2024-03-02T06:36:50;22.57;;;13.00;;
12437;SDS011;6283;51.330;12.374;2024-03-02T06:39:16;21.40;;;13.03;;
12437;SDS011;6283;51.330;12.374;2024-03-02T06:41:42;22.47;;;12.90;;
12437;SDS011;6283;51.330;12.374;2024-03-02T06:44:12;22.40;;;13.83;;
12437;SDS011;6283;51.330;12.374;2024-03-02T06:46:38;23.87;;;14.73;;
12437;SDS011;6283;51.330;12.374;2024-03-02T06:49:04;27.77;;;14.93;;
12437;SDS011;6283;51.330;12.374;2024-03-02T06:51:29;28.47;;;14.23;;
12437;SDS011;6283;51.330;12.374;2024-03-02T06:53:55;27.23;;;15.50;;
12437;SDS011;6283;51.330;12.374;2024-03-02T06:56:21;26.57;;;14.67;;
12437;SDS011;6283;51.330;12.374;2024-03-02T06:58:46;25.57;;;14.83;;
12437;SDS011;6283;51.330;12.374;2024-03-02T07:01:12;24.07;;;14.53;;
12437;SDS011;6283;51.330;12.374;2024-03-02T07:03:38;28.00;;;14.80;;
12437;SDS011;6283;51.330;12.374;2024-03-02T07:06:06;23.87;;;14.00;;
12437;SDS011;6283;51.330;12.374;2024-03-02T07:08:32;27.00;;;13.57;;
12437;SDS011;6283;51.330;12.374;2024-03-02T07:10:58;30.23;;;15.20;;
12437;SDS011;6283;51.330;12.374;2024-03-02T07:13:24;25.47;;;14.40;;
12437;SDS011;6283;51.330;12.374;2024-03-02T07:15:49;23.17;;;13.20;;
12437;SDS011;6283;51.330;12.374;2024-03-02T07:18:33;24.67;;;13.37;;
12437;SDS011;6283;51.330;12.374;2024-03-02T07:21:02;20.57;;;12.67;;
12437;SDS011;6283;51.330;12.374;2024-03-02T07:23:28;26.37;;;14.80;;
12437;SDS011;6283;51.330;12.374;2024-03-02T07:25:53;27.23;;;13.67;;
12437;SDS011;6283;51.330;12.374;2024-03-02T07:28:23;26.67;;;14.03;;
12437;SDS011;6283;51.330;12.374;2024-03-02T07:30:58;25.40;;;12.60;;
12437;SDS011;6283;51.330;12.374;2024-03-02T07:33:28;20.60;;;11.80;;
12437;SDS011;6283;51.330;12.374;2024-03-02T07:35:54;20.40;;;12.30;;
12437;SDS011;6283;51.330;12.374;2024-03-02T07:38:20;23.40;;;12.20;;
12437;SDS011;6283;51.330;12.374;2024-03-02T07:40:47;26.07;;;13.73;;
12437;SDS011;6283;51.330;12.374;2024-03-02T07:43:15;23.60;;;12.77;;
12437;SDS011;6283;51.330;12.374;2024-03-02T07:45:42;23.57;;;13.43;;
12437;SDS011;6283;51.330;12.374;2024-03-02T07:48:07;25.67;;;14.00;;
12437;SDS011;6283;51.330;12.374;2024-03-02T07:50:33;23.67;;;12.80;;
12437;SDS011;6283;51.330;12.374;2024-03-02T07:53:00;20.93;;;13.07;;
12437;SDS011;6283;51.330;12.374;2024-03-02T07:55:26;22.03;;;13.20;;
12437;SDS011;6283;51.330;12.374;2024-03-02T07:57:52;22.37;;;13.10;;
12437;SDS011;6283;51.330;12.374;2024-03-02T08:00:18;26.60;;;14.13;;
12437;SDS011;6283;51.330;12.374;2024-03-02T08:02:43;22.53;;;12.20;;
12437;SDS011;6283;51.330;12.374;2024-03-02T08:05:09;25.83;;;13.50;;
12437;SDS011;6283;51.330;12.374;2024-03-02T08:07:35;20.83;;;13.40;;
12437;SDS011;6283;51.330;12.374;2024-03-02T08:10:00;25.47;;;13.67;;
12437;SDS011;6283;51.330;12.374;2024-03-02T08:12:26;23.33;;;13.83;;
12437;SDS011;6283;51.330;12.374;2024-03-02T08:14:52;20.87;;;13.27;;
12437;SDS011;6283;51.330;12.374;2024-03-02T08:17:17;23.83;;;12.77;;
12437;SDS011;6283;51.330;12.374;2024-03-02T08:19:43;22.93;;;12.87;;
12437;SDS011;6283;51.330;12.374;2024-03-02T08:22:09;21.57;;;12.17;;
12437;SDS011;6283;51.330;12.374;2024-03-02T08:24:35;22.27;;;13.30;;
12437;SDS011;6283;51.330;12.374;2024-03-02T08:27:01;22.67;;;13.03;;
12437;SDS011;6283;51.330;12.374;2024-03-02T08:29:27;21.60;;;13.57;;
12437;SDS011;6283;51.330;12.374;2024-03-02T08:31:53;22.03;;;13.07;;
12437;SDS011;6283;51.330;12.374;2024-03-02T08:34:19;24.17;;;14.20;;
12437;SDS011;6283;51.330;12.374;2024-03-02T08:36:45;20.83;;;12.70;;
12437;SDS011;6283;51.330;12.374;2024-03-02T08:39:11;21.23;;;12.67;;
12437;SDS011;6283;51.330;12.374;2024-03-02T08:41:46;20.90;;;12.70;;
12437;SDS011;6283;51.330;12.374;2024-03-02T08:44:12;26.10;;;13.40;;
12437;SDS011;6283;51.330;12.374;2024-03-02T08:46:38;20.37;;;13.13;;
12437;SDS011;6283;51.330;12.374;2024-03-02T08:49:05;23.93;;;13.57;;
12437;SDS011;6283;51.330;12.374;2024-03-02T08:51:31;23.37;;;13.77;;
12437;SDS011;6283;51.330;12.374;2024-03-02T08:53:57;25.47;;;14.03;;
12437;SDS011;6283;51.330;12.374;2024-03-02T08:56:23;28.30;;;14.73;;
12437;SDS011;6283;51.330;12.374;2024-03-02T08:58:49;23.87;;;14.83;;
12437;SDS011;6283;51.330;12.374;2024-03-02T09:01:16;26.13;;;14.27;;
12437;SDS011;6283;51.330;12.374;2024-03-02T09:03:43;25.37;;;14.57;;
12437;SDS011;6283;51.330;12.374;2024-03-02T09:06:12;26.53;;;15.13;;
12437;SDS011;6283;51.330;12.374;2024-03-02T09:08:38;25.37;;;14.73;;
12437;SDS011;6283;51.330;12.374;2024-03-02T09:11:04;26.63;;;14.60;;
12437;SDS011;6283;51.330;12.374;2024-03-02T09:13:31;23.93;;;13.47;;
12437;SDS011;6283;51.330;12.374;2024-03-02T09:15:58;25.93;;;15.57;;
12437;SDS011;6283;51.330;12.374;2024-03-02T09:18:24;24.17;;;13.63;;
12437;SDS011;6283;51.330;12.374;2024-03-02T09:20:49;28.30;;;15.00;;
12437;SDS011;6283;51.330;12.374;2024-03-02T09:23:15;24.93;;;14.20;;
12437;SDS011;6283;51.330;12.374;2024-03-02T09:25:40;23.20;;;13.80;;
12437;SDS011;6283;51.330;12.374;2024-03-02T09:28:06;23.63;;;13.87;;
12437;SDS011;6283;51.330;12.374;2024-03-02T09:30:32;23.83;;;13.97;;
12437;SDS011;6283;51.330;12.374;2024-03-02T09:32:58;26.90;;;14.93;;
12437;SDS011;6283;51.330;12.374;2024-03-02T09:35:24;20.17;;;12.87;;
12437;SDS011;6283;51.330;12.374;2024-03-02T09:37:49;26.43;;;14.87;;
12437;SDS011;6283;51.330;12.374;2024-03-02T09:40:16;25.10;;;14.20;;
12437;SDS011;6283;51.330;12.374;2024-03-02T09:42:41;24.37;;;13.77;;
12437;SDS011;6283;51.330;12.374;2024-03-02T09:45:08;22.27;;;13.77;;
12437;SDS011;6283;51.330;12.374;2024-03-02T09:47:34;21.57;;;12.83;;
12437;SDS011;6283;51.330;12.374;2024-03-02T09:50:00;22.33;;;12.83;;
12437;SDS011;6283;51.330;12.374;2024-03-02T09:52:26;24.27;;;12.97;;
12437;SDS011;6283;51.330;12.374;2024-03-02T09:54:52;27.47;;;13.83;;
12437;SDS011;6283;51.330;12.374;2024-03-02T09:57:17;21.60;;;12.57;;
12437;SDS011;6283;51.330;12.374;2024-03-02T09:59:43;19.53;;;12.07;;
12437;SDS011;6283;51.330;12.374;2024-03-02T10:02:10;22.23;;;12.77;;
12437;SDS011;6283;51.330;12.374;2024-03-02T10:04:36;21.70;;;12.87;;
12437;SDS011;6283;51.330;12.374;2024-03-02T10:09:44;20.63;;;11.50;;
12437;SDS011;6283;51.330;12.374;2024-03-02T10:12:11;19.03;;;11.73;;
12437;SDS011;6283;51.330;12.374;2024-03-02T10:14:38;20.83;;;12.07;;
12437;SDS011;6283;51.330;12.374;2024-03-02T10:17:08;19.27;;;11.60;;
12437;SDS011;6283;51.330;12.374;2024-03-02T10:19:35;17.77;;;11.23;;
12437;SDS011;6283;51.330;12.374;2024-03-02T10:22:05;17.83;;;11.77;;
12437;SDS011;6283;51.330;12.374;2024-03-02T10:24:49;19.47;;;11.57;;
12437;SDS011;6283;51.330;12.374;2024-03-02T10:29:41;17.50;;;10.57;;
12437;SDS011;6283;51.330;12.374;2024-03-02T10:32:10;18.23;;;10.80;;
12437;SDS011;6283;51.330;12.374;2024-03-02T10:34:36;13.87;;;9.40;;
12437;SDS011;6283;51.330;12.374;2024-03-02T10:37:03;16.52;;;10.45;;
12437;SDS011;6283;51.330;12.374;2024-03-02T10:39:29;15.88;;;10.15;;
12437;SDS011;6283;51.330;12.374;2024-03-02T10:41:56;15.23;;;10.10;;
12437;SDS011;6283;51.330;12.374;2024-03-02T10:44:23;17.63;;;9.70;;
12437;SDS011;6283;51.330;12.374;2024-03-02T10:46:50;15.40;;;9.20;;
12437;SDS011;6283;51.330;12.374;2024-03-02T10:49:17;20.02;;;9.90;;
12437;SDS011;6283;51.330;12.374;2024-03-02T10:51:45;16.73;;;8.77;;
12437;SDS011;6283;51.330;12.374;2024-03-02T10:54:11;14.55;;;8.15;;
12437;SDS011;6283;51.330;12.374;2024-03-02T11:01:40;10.30;;;6.63;;
12437;SDS011;6283;51.330;12.374;2024-03-02T11:04:08;9.30;;;6.07;;
12437;SDS011;6283;51.330;12.374;2024-03-02T11:06:37;8.45;;;5.90;;
12437;SDS011;6283;51.330;12.374;2024-03-02T11:09:06;9.02;;;6.25;;
12437;SDS011;6283;51.330;12.374;2024-03-02T11:11:40;9.73;;;6.68;;
12437;SDS011;6283;51.330;12.374;2024-03-02T11:14:09;11.23;;;6.50;;
12437;SDS011;6283;51.330;12.374;2024-03-02T11:16:38;10.52;;;7.40;;
12437;SDS011;6283;51.330;12.374;2024-03-02T11:19:07;13.07;;;7.10;;
12437;SDS011;6283;51.330;12.374;2024-03-02T11:21:40;12.27;;;6.82;;
12437;SDS011;6283;51.330;12.374;2024-03-02T11:26:47;11.15;;;6.75;;
12437;SDS011;6283;51.330;12.374;2024-03-02T11:32:00;11.63;;;6.88;;
12437;SDS011;6283;51.330;12.374;2024-03-02T11:34:30;10.93;;;6.97;;
12437;SDS011;6283;51.330;12.374;2024-03-02T11:37:05;12.20;;;7.90;;
12437;SDS011;6283;51.330;12.374;2024-03-02T11:39:31;11.00;;;7.13;;
12437;SDS011;6283;51.330;12.374;2024-03-02T11:41:57;13.40;;;7.30;;
12437;SDS011;6283;51.330;12.374;2024-03-02T11:44:27;12.88;;;9.20;;
12437;SDS011;6283;51.330;12.374;2024-03-02T11:46:59;10.43;;;7.07;;
12437;SDS011;6283;51.330;12.374;2024-03-02T11:49:37;10.18;;;7.30;;
12437;SDS011;6283;51.330;12.374;2024-03-02T11:52:06;13.40;;;7.95;;
12437;SDS011;6283;51.330;12.374;2024-03-02T11:54:34;11.50;;;7.30;;
12437;SDS011;6283;51.330;12.374;2024-03-02T11:57:20;10.05;;;6.53;;
12437;SDS011;6283;51.330;12.374;2024-03-02T11:59:49;10.05;;;7.07;;
12437;SDS011;6283;51.330;12.374;2024-03-02T12:02:16;11.10;;;7.55;;
12437;SDS011;6283;51.330;12.374;2024-03-02T12:04:46;12.25;;;6.90;;
12437;SDS011;6283;51.330;12.374;2024-03-02T12:07:18;8.55;;;5.95;;
12437;SDS011;6283;51.330;12.374;2024-03-02T12:09:46;8.93;;;6.38;;
12437;SDS011;6283;51.330;12.374;2024-03-02T12:12:11;8.48;;;6.22;;
12437;SDS011;6283;51.330;12.374;2024-03-02T12:14:49;8.32;;;6.00;;
12437;SDS011;6283;51.330;12.374;2024-03-02T12:17:17;8.82;;;5.63;;
12437;SDS011;6283;51.330;12.374;2024-03-02T12:19:43;9.70;;;5.68;;
12437;SDS011;6283;51.330;12.374;2024-03-02T12:22:09;6.55;;;5.10;;
12437;SDS011;6283;51.330;12.374;2024-03-02T12:24:34;6.88;;;5.07;;
12437;SDS011;6283;51.330;12.374;2024-03-02T12:27:02;6.10;;;4.90;;
12437;SDS011;6283;51.330;12.374;2024-03-02T12:29:28;5.95;;;5.32;;
12437;SDS011;6283;51.330;12.374;2024-03-02T12:31:54;7.75;;;5.43;;
12437;SDS011;6283;51.330;12.374;2024-03-02T12:34:21;6.30;;;5.57;;
12437;SDS011;6283;51.330;12.374;2024-03-02T12:36:47;10.05;;;6.82;;
12437;SDS011;6283;51.330;12.374;2024-03-02T12:39:17;8.65;;;6.50;;
12437;SDS011;6283;51.330;12.374;2024-03-02T12:41:44;11.40;;;6.95;;
12437;SDS011;6283;51.330;12.374;2024-03-02T12:44:15;9.15;;;6.30;;
12437;SDS011;6283;51.330;12.374;2024-03-02T12:46:41;10.60;;;6.40;;
12437;SDS011;6283;51.330;12.374;2024-03-02T12:49:10;8.57;;;6.22;;
12437;SDS011;6283;51.330;12.374;2024-03-02T12:51:38;7.95;;;5.68;;
12437;SDS011;6283;51.330;12.374;2024-03-02T12:54:05;8.25;;;5.03;;
12437;SDS011;6283;51.330;12.374;2024-03-02T12:56:35;11.18;;;6.53;;
12437;SDS011;6283;51.330;12.374;2024-03-02T12:59:01;8.48;;;6.03;;
12437;SDS011;6283;51.330;12.374;2024-03-02T13:01:27;7.68;;;5.28;;
12437;SDS011;6283;51.330;12.374;2024-03-02T13:03:53;11.75;;;6.03;;
12437;SDS011;6283;51.330;12.374;2024-03-02T13:06:22;7.47;;;5.68;;
12437;SDS011;6283;51.330;12.374;2024-03-02T13:08:48;6.60;;;5.45;;
12437;SDS011;6283;51.330;12.374;2024-03-02T13:11:14;6.80;;;5.18;;
12437;SDS011;6283;51.330;12.374;2024-03-02T13:13:41;8.65;;;5.13;;
12437;SDS011;6283;51.330;12.374;2024-03-02T13:16:10;8.85;;;6.70;;
12437;SDS011;6283;51.330;12.374;2024-03-02T13:18:38;6.03;;;4.63;;
12437;SDS011;6283;51.330;12.374;2024-03-02T13:21:05;7.65;;;5.03;;
12437;SDS011;6283;51.330;12.374;2024-03-02T13:23:31;14.20;;;9.18;;
12437;SDS011;6283;51.330;12.374;2024-03-02T13:25:57;9.32;;;6.03;;
12437;SDS011;6283;51.330;12.374;2024-03-02T13:28:23;6.43;;;5.30;;
12437;SDS011;6283;51.330;12.374;2024-03-02T13:30:49;8.07;;;5.53;;
12437;SDS011;6283;51.330;12.374;2024-03-02T13:33:15;6.07;;;5.28;;
12437;SDS011;6283;51.330;12.374;2024-03-02T13:35:44;10.43;;;5.40;;
12437;SDS011;6283;51.330;12.374;2024-03-02T13:38:10;8.32;;;5.47;;
12437;SDS011;6283;51.330;12.374;2024-03-02T13:40:35;5.00;;;4.47;;
12437;SDS011;6283;51.330;12.374;2024-03-02T13:43:02;8.20;;;5.65;;
12437;SDS011;6283;51.330;12.374;2024-03-02T13:45:27;7.78;;;4.53;;
12437;SDS011;6283;51.330;12.374;2024-03-02T13:47:53;8.88;;;5.28;;
12437;SDS011;6283;51.330;12.374;2024-03-02T13:50:19;7.43;;;5.07;;
12437;SDS011;6283;51.330;12.374;2024-03-02T13:52:45;8.60;;;6.25;;
12437;SDS011;6283;51.330;12.374;2024-03-02T13:55:11;6.38;;;4.93;;
12437;SDS011;6283;51.330;12.374;2024-03-02T13:57:37;7.57;;;5.10;;
12437;SDS011;6283;51.330;12.374;2024-03-02T14:00:03;8.02;;;5.45;;
12437;SDS011;6283;51.330;12.374;2024-03-02T14:02:35;6.43;;;5.45;;
12437;SDS011;6283;51.330;12.374;2024-03-02T14:05:01;7.82;;;5.35;;
12437;SDS011;6283;51.330;12.374;2024-03-02T14:07:26;7.40;;;6.10;;
12437;SDS011;6283;51.330;12.374;2024-03-02T14:09:52;8.48;;;5.90;;
12437;SDS011;6283;51.330;12.374;2024-03-02T14:12:18;6.22;;;5.25;;
12437;SDS011;6283;51.330;12.374;2024-03-02T14:14:43;10.35;;;5.10;;
12437;SDS011;6283;51.330;12.374;2024-03-02T14:17:09;5.95;;;4.88;;
12437;SDS011;6283;51.330;12.374;2024-03-02T14:19:39;6.55;;;5.25;;
12437;SDS011;6283;51.330;12.374;2024-03-02T14:22:05;8.05;;;5.32;;
12437;SDS011;6283;51.330;12.374;2024-03-02T14:24:31;6.80;;;5.20;;
12437;SDS011;6283;51.330;12.374;2024-03-02T14:26:56;6.68;;;4.70;;
12437;SDS011;6283;51.330;12.374;2024-03-02T14:29:28;8.30;;;5.28;;
12437;SDS011;6283;51.330;12.374;2024-03-02T14:31:54;5.53;;;4.40;;
12437;SDS011;6283;51.330;12.374;2024-03-02T14:34:19;7.22;;;4.05;;
12437;SDS011;6283;51.330;12.374;2024-03-02T14:36:45;5.25;;;4.00;;
12437;SDS011;6283;51.330;12.374;2024-03-02T14:39:11;6.10;;;4.75;;
12437;SDS011;6283;51.330;12.374;2024-03-02T14:41:36;5.72;;;4.88;;
12437;SDS011;6283;51.330;12.374;2024-03-02T14:44:02;5.22;;;4.72;;
12437;SDS011;6283;51.330;12.374;2024-03-02T14:46:28;6.25;;;4.68;;
12437;SDS011;6283;51.330;12.374;2024-03-02T14:48:55;5.97;;;5.07;;
12437;SDS011;6283;51.330;12.374;2024-03-02T14:51:20;5.38;;;3.92;;